createdAt,value
2019-03-21T00:01:18.135Z,5.56
2019-03-21T00:03:50.596Z,5.61
2019-03-21T00:06:21.094Z,5.58
2019-03-21T00:08:52.049Z,5.56
2019-03-21T00:11:55.023Z,5.50
2019-03-21T00:14:43.573Z,5.46
2019-03-21T00:17:22.999Z,5.38
2019-03-21T00:19:53.569Z,5.31
2019-03-21T00:22:24.422Z,5.21
2019-03-21T00:24:55.178Z,5.14
2019-03-21T00:27:26.242Z,5.09
2019-03-21T00:29:56.872Z,5.04
2019-03-21T00:32:27.625Z,5.01
2019-03-21T00:34:58.296Z,5.00
2019-03-21T00:37:29.135Z,4.96
2019-03-21T00:40:00.908Z,4.92
2019-03-21T00:42:31.478Z,4.81
2019-03-21T00:45:02.231Z,4.77
2019-03-21T00:47:32.987Z,4.74
2019-03-21T00:50:04.556Z,4.66
2019-03-21T00:52:36.129Z,4.69
2019-03-21T00:55:10.055Z,4.61
2019-03-21T00:57:40.500Z,4.56
2019-03-21T01:00:20.607Z,4.47
2019-03-21T01:02:51.916Z,4.47
2019-03-21T01:05:22.579Z,4.35
2019-03-21T01:07:53.435Z,4.29
2019-03-21T01:10:27.161Z,4.30
2019-03-21T01:12:58.066Z,4.23
2019-03-21T01:15:28.849Z,4.26
2019-03-21T01:17:59.725Z,4.15
2019-03-21T01:20:30.482Z,4.13
2019-03-21T01:23:01.419Z,4.11
2019-03-21T01:25:39.758Z,4.09
2019-03-21T01:28:10.600Z,4.10
2019-03-21T01:30:41.266Z,3.98
2019-03-21T01:33:12.124Z,3.97
2019-03-21T01:35:43.474Z,3.89
2019-03-21T01:38:13.940Z,3.85
2019-03-21T01:40:53.606Z,3.85
2019-03-21T01:43:24.448Z,3.81
2019-03-21T01:45:55.200Z,3.75
2019-03-21T01:48:26.262Z,3.73
2019-03-21T01:50:57.115Z,3.70
2019-03-21T01:53:27.869Z,3.66
2019-03-21T01:55:58.636Z,3.61
2019-03-21T01:58:29.478Z,3.56
2019-03-21T02:01:01.443Z,3.54
2019-03-21T02:03:32.198Z,3.54
2019-03-21T02:06:03.587Z,3.58
2019-03-21T02:08:34.418Z,3.53
2019-03-21T02:11:05.295Z,3.53
2019-03-21T02:13:35.945Z,3.50
2019-03-21T02:16:07.928Z,3.46
2019-03-21T02:18:38.477Z,3.46
2019-03-21T02:21:09.333Z,3.41
2019-03-21T02:23:40.088Z,3.40
2019-03-21T02:26:11.352Z,3.34
2019-03-21T02:28:42.208Z,3.32
2019-03-21T02:31:13.148Z,3.27
2019-03-21T02:36:16.724Z,3.17
2019-03-21T02:38:47.580Z,3.13
2019-03-21T02:41:18.335Z,3.11
2019-03-21T02:43:49.504Z,3.05
2019-03-21T02:46:20.352Z,2.98
2019-03-21T02:48:52.232Z,2.93
2019-03-21T02:51:24.420Z,2.94
2019-03-21T02:53:55.069Z,2.94
2019-03-21T02:56:26.743Z,2.83
2019-03-21T02:58:57.410Z,2.76
2019-03-21T03:01:29.259Z,2.77
2019-03-21T03:04:00.037Z,2.71
2019-03-21T03:06:31.507Z,2.64
2019-03-21T03:09:02.359Z,2.56
2019-03-21T03:11:33.094Z,2.42
2019-03-21T03:14:04.632Z,2.34
2019-03-21T03:16:35.329Z,2.25
2019-03-21T03:19:06.087Z,2.18
2019-03-21T03:21:36.840Z,2.16
2019-03-21T03:24:07.492Z,2.11
2019-03-21T03:26:38.450Z,2.02
2019-03-21T03:29:09.289Z,1.92
2019-03-21T03:31:40.042Z,1.82
2019-03-21T03:34:10.814Z,1.73
2019-03-21T03:36:41.670Z,1.62
2019-03-21T03:39:12.412Z,1.56
2019-03-21T03:41:43.381Z,1.49
2019-03-21T03:44:14.117Z,1.59
2019-03-21T03:46:44.769Z,1.58
2019-03-21T03:49:15.626Z,1.57
2019-03-21T03:51:46.397Z,1.53
2019-03-21T03:54:17.242Z,1.48
2019-03-21T03:56:48.109Z,1.43
2019-03-21T03:59:18.843Z,1.38
2019-03-21T04:01:50.661Z,1.39
2019-03-21T04:04:21.375Z,1.32
2019-03-21T04:06:52.131Z,1.34
2019-03-21T04:09:22.800Z,1.39
2019-03-21T04:11:53.638Z,1.35
2019-03-21T04:14:24.699Z,1.28
2019-03-21T04:16:54.663Z,1.30
2019-03-21T04:19:25.186Z,1.45
2019-03-21T04:21:55.154Z,1.54
2019-03-21T04:24:25.669Z,1.67
2019-03-21T04:26:56.643Z,1.77
2019-03-21T04:29:28.400Z,1.93
2019-03-21T04:31:59.382Z,2.16
2019-03-21T04:34:30.422Z,2.41
2019-03-21T04:37:01.191Z,2.68
2019-03-21T04:39:32.048Z,2.87
2019-03-21T04:42:03.109Z,3.12
2019-03-21T04:44:33.760Z,3.35
2019-03-21T04:47:05.025Z,3.50
2019-03-21T04:49:35.685Z,3.57
2019-03-21T04:52:05.735Z,3.78
2019-03-21T04:54:36.245Z,4.03
2019-03-21T04:57:06.916Z,4.19
2019-03-21T04:59:37.771Z,4.05
2019-03-21T05:02:09.433Z,4.10
2019-03-21T05:04:41.415Z,4.20
2019-03-21T05:07:11.855Z,4.30
2019-03-21T05:09:42.628Z,4.38
2019-03-21T05:12:13.383Z,4.37
2019-03-21T05:14:44.034Z,4.48
2019-03-21T05:17:15.489Z,4.64
2019-03-21T05:19:45.551Z,4.66
2019-03-21T05:22:16.074Z,4.67
2019-03-21T05:24:46.741Z,4.53
2019-03-21T05:27:17.598Z,4.71
2019-03-21T05:29:48.452Z,4.72
2019-03-21T05:32:20.232Z,4.77
2019-03-21T05:34:50.659Z,4.95
2019-03-21T05:37:21.433Z,5.07
2019-03-21T05:39:52.085Z,5.28
2019-03-21T05:42:23.144Z,5.27
2019-03-21T05:44:53.897Z,5.50
2019-03-21T05:47:24.531Z,5.50
2019-03-21T05:49:55.387Z,5.47
2019-03-21T05:52:26.245Z,5.48
2019-03-21T05:55:13.075Z,5.72
2019-03-21T05:57:45.360Z,5.68
2019-03-21T06:00:19.284Z,5.92
2019-03-21T06:02:51.061Z,5.80
2019-03-21T06:05:21.693Z,6.02
2019-03-21T06:08:01.668Z,6.21
2019-03-21T06:10:32.523Z,6.01
2019-03-21T06:13:03.156Z,6.34
2019-03-21T06:15:34.659Z,6.25
2019-03-21T06:18:38.330Z,6.44
2019-03-21T06:21:23.913Z,6.52
2019-03-21T06:24:16.147Z,6.76
2019-03-21T06:27:02.034Z,6.57
2019-03-21T06:29:32.790Z,6.99
2019-03-21T06:32:03.627Z,7.29
2019-03-21T06:34:34.500Z,7.42
2019-03-21T06:37:05.460Z,7.45
2019-03-21T06:39:36.218Z,7.46
2019-03-21T06:42:06.966Z,7.64
2019-03-21T06:44:37.825Z,7.84
2019-03-21T06:47:08.578Z,8.21
2019-03-21T06:49:39.232Z,8.35
2019-03-21T06:52:10.068Z,8.61
2019-03-21T06:54:40.839Z,8.77
2019-03-21T06:57:11.593Z,8.33
2019-03-21T06:59:42.246Z,8.08
2019-03-21T07:02:13.001Z,7.95
2019-03-21T07:04:44.775Z,8.25
2019-03-21T07:07:15.614Z,8.40
2019-03-21T07:09:46.390Z,8.68
2019-03-21T07:12:17.034Z,8.33
2019-03-21T07:14:53.618Z,8.09
2019-03-21T07:17:24.273Z,8.25
2019-03-21T07:19:55.024Z,8.50
2019-03-21T07:22:25.766Z,8.83
2019-03-21T07:24:56.327Z,9.01
2019-03-21T07:27:26.282Z,8.73
2019-03-21T07:29:56.812Z,8.91
2019-03-21T07:32:33.246Z,8.98
2019-03-21T07:34:59.648Z,9.06
2019-03-21T07:37:30.302Z,9.08
2019-03-21T07:40:01.057Z,8.97
2019-03-21T07:42:31.811Z,9.02
2019-03-21T07:45:02.463Z,9.14
2019-03-21T07:47:33.302Z,9.24
2019-03-21T07:50:04.686Z,9.51
2019-03-21T07:52:35.335Z,9.59
2019-03-21T07:55:07.565Z,9.73
2019-03-21T07:57:37.975Z,10.02
2019-03-21T08:00:18.955Z,10.13
2019-03-21T08:02:49.489Z,9.98
2019-03-21T08:05:21.178Z,10.13
2019-03-21T08:07:51.929Z,10.00
2019-03-21T08:10:22.584Z,10.00
2019-03-21T08:12:53.419Z,9.70
2019-03-21T08:15:24.171Z,9.92
2019-03-21T08:17:56.461Z,9.88
2019-03-21T08:20:27.136Z,10.36
2019-03-21T08:22:57.990Z,10.14
2019-03-21T08:25:28.845Z,10.10
2019-03-21T08:27:59.596Z,10.20
2019-03-21T08:30:33.112Z,10.28
2019-03-21T08:33:04.071Z,10.42
2019-03-21T08:35:34.809Z,10.43
2019-03-21T08:38:05.579Z,10.48
2019-03-21T08:40:36.228Z,10.60
2019-03-21T08:43:07.086Z,10.38
2019-03-21T08:45:37.943Z,10.21
2019-03-21T08:48:08.697Z,10.56
2019-03-21T08:50:39.348Z,10.82
2019-03-21T08:53:10.205Z,10.72
2019-03-21T08:55:40.957Z,10.81
2019-03-21T08:58:11.714Z,10.88
2019-03-21T09:00:42.363Z,11.26
2019-03-21T09:03:12.897Z,11.19
2019-03-21T09:05:44.670Z,11.27
2019-03-21T09:08:15.531Z,11.15
2019-03-21T09:10:46.181Z,10.81
2019-03-21T09:13:16.935Z,10.73
2019-03-21T09:15:47.808Z,10.65
2019-03-21T09:18:18.663Z,10.72
2019-03-21T09:20:49.416Z,10.95
2019-03-21T09:23:20.052Z,11.15
2019-03-21T09:25:51.403Z,10.93
2019-03-21T09:28:22.189Z,11.08
2019-03-21T09:30:53.048Z,11.26
2019-03-21T09:33:24.003Z,10.90
2019-03-21T09:35:54.656Z,11.25
2019-03-21T09:38:25.492Z,11.31
2019-03-21T09:40:56.249Z,10.82
2019-03-21T09:43:27.021Z,10.97
2019-03-21T09:45:57.674Z,10.87
2019-03-21T09:48:28.510Z,10.78
2019-03-21T09:50:59.280Z,10.88
2019-03-21T09:53:30.035Z,11.00
2019-03-21T09:56:01.297Z,11.06
2019-03-21T09:58:32.258Z,11.11
2019-03-21T10:01:02.793Z,11.44
2019-03-21T10:03:33.665Z,11.55
2019-03-21T10:06:05.344Z,11.65
2019-03-21T10:08:36.196Z,11.41
2019-03-21T10:11:06.950Z,11.99
2019-03-21T10:13:37.608Z,12.17
2019-03-21T10:16:08.457Z,12.10
2019-03-21T10:18:39.192Z,12.11
2019-03-21T10:21:09.965Z,11.73
2019-03-21T10:23:40.598Z,11.86
2019-03-21T10:26:11.371Z,12.67
2019-03-21T10:28:42.123Z,11.94
2019-03-21T10:31:12.876Z,11.33
2019-03-21T10:33:43.633Z,10.67
2019-03-21T10:36:16.067Z,10.77
2019-03-21T10:38:46.881Z,11.02
2019-03-21T10:41:17.532Z,11.18
2019-03-21T10:43:48.386Z,11.39
2019-03-21T10:46:19.122Z,11.02
2019-03-21T10:48:49.894Z,11.38
2019-03-21T10:51:20.528Z,11.64
2019-03-21T10:53:51.401Z,11.28
2019-03-21T10:56:22.155Z,11.27
2019-03-21T10:58:52.911Z,11.09
2019-03-21T11:01:23.539Z,10.68
2019-03-21T11:03:54.416Z,10.92
2019-03-21T11:06:26.091Z,11.15
2019-03-21T11:08:56.946Z,11.21
2019-03-21T11:11:27.702Z,11.47
2019-03-21T11:13:58.338Z,11.50
2019-03-21T11:16:31.400Z,11.53
2019-03-21T11:19:01.600Z,11.81
2019-03-21T11:21:32.352Z,12.18
2019-03-21T11:24:03.211Z,12.40
2019-03-21T11:26:33.943Z,11.66
2019-03-21T11:29:04.717Z,11.49
2019-03-21T11:31:35.370Z,11.24
2019-03-21T11:34:06.309Z,11.38
2019-03-21T11:36:38.647Z,11.51
2019-03-21T11:39:09.370Z,11.79
2019-03-21T11:41:40.026Z,11.55
2019-03-21T11:44:10.883Z,11.57
2019-03-21T11:46:41.631Z,11.81
2019-03-21T11:49:13.002Z,11.40
2019-03-21T11:51:43.765Z,11.55
2019-03-21T11:54:14.489Z,11.24
2019-03-21T11:56:45.051Z,10.84
2019-03-21T11:59:15.893Z,10.95
2019-03-21T12:01:48.199Z,11.18
2019-03-21T12:04:18.952Z,11.15
2019-03-21T12:06:50.523Z,11.11
2019-03-21T12:09:20.977Z,11.66
2019-03-21T12:11:51.606Z,11.65
2019-03-21T12:14:22.479Z,11.83
2019-03-21T12:16:53.336Z,11.63
2019-03-21T12:19:24.091Z,11.09
2019-03-21T12:21:54.622Z,10.76
2019-03-21T12:24:25.484Z,11.08
2019-03-21T12:26:56.250Z,11.07
2019-03-21T12:29:26.985Z,11.19
2019-03-21T12:31:57.346Z,11.26
2019-03-21T12:34:28.113Z,11.56
2019-03-21T12:36:58.841Z,11.18
2019-03-21T12:39:29.610Z,11.35
2019-03-21T12:42:00.364Z,11.52
2019-03-21T12:44:31.221Z,11.68
2019-03-21T12:47:02.078Z,11.53
2019-03-21T12:49:32.816Z,12.14
2019-03-21T12:52:03.483Z,12.16
2019-03-21T12:54:34.338Z,11.83
2019-03-21T12:57:04.970Z,11.36
2019-03-21T12:59:35.742Z,10.90
2019-03-21T13:02:06.397Z,10.89
2019-03-21T13:04:37.250Z,11.22
2019-03-21T13:07:09.029Z,11.36
2019-03-21T13:09:39.883Z,11.49
2019-03-21T13:12:10.520Z,11.42
2019-03-21T13:14:40.699Z,11.33
2019-03-21T13:17:11.224Z,11.13
2019-03-21T13:19:41.877Z,10.61
2019-03-21T13:22:12.615Z,10.59
2019-03-21T13:24:43.471Z,10.51
2019-03-21T13:27:14.736Z,10.61
2019-03-21T13:29:45.303Z,10.60
2019-03-21T13:32:16.054Z,10.51
2019-03-21T13:34:46.913Z,10.62
2019-03-21T13:37:17.769Z,10.64
2019-03-21T13:39:48.624Z,10.73
2019-03-21T13:42:19.378Z,10.61
2019-03-21T13:44:50.227Z,10.61
2019-03-21T13:47:20.987Z,10.64
2019-03-21T13:49:51.746Z,10.68
2019-03-21T13:52:22.598Z,10.47
2019-03-21T13:54:53.352Z,10.36
2019-03-21T13:57:24.108Z,10.14
2019-03-21T13:59:54.746Z,10.10
2019-03-21T14:02:25.493Z,10.10
2019-03-21T14:04:56.268Z,10.00
2019-03-21T14:07:27.921Z,9.99
2019-03-21T14:09:58.673Z,9.89
2019-03-21T14:12:29.223Z,9.87
2019-03-21T14:14:59.192Z,9.87
2019-03-21T14:17:29.715Z,9.82
2019-03-21T14:20:00.380Z,9.72
2019-03-21T14:22:31.115Z,9.73
2019-03-21T14:25:01.976Z,9.78
2019-03-21T14:27:32.744Z,9.78
2019-03-21T14:30:04.196Z,9.74
2019-03-21T14:32:34.556Z,9.67
2019-03-21T14:35:07.645Z,9.69
2019-03-21T14:37:38.011Z,9.61
2019-03-21T14:40:13.859Z,9.61
2019-03-21T14:42:44.294Z,9.59
2019-03-21T14:45:17.633Z,9.56
2019-03-21T14:47:48.069Z,9.55
2019-03-21T14:50:18.733Z,9.46
2019-03-21T14:52:49.593Z,9.40
2019-03-21T14:55:20.445Z,9.40
2019-03-21T14:57:51.198Z,9.37
2019-03-21T15:00:21.743Z,9.36
2019-03-21T15:02:52.604Z,9.23
2019-03-21T15:05:23.358Z,9.13
2019-03-21T15:07:55.032Z,9.10
2019-03-21T15:10:25.769Z,9.09
2019-03-21T15:12:56.440Z,9.12
2019-03-21T15:15:27.092Z,9.11
2019-03-21T15:17:58.787Z,9.11
2019-03-21T15:20:29.518Z,9.09
2019-03-21T15:23:00.382Z,9.10
2019-03-21T15:25:31.163Z,9.14
2019-03-21T15:28:01.984Z,9.08
2019-03-21T15:30:32.822Z,9.12
2019-03-21T15:33:03.598Z,9.16
2019-03-21T15:35:34.350Z,9.17
2019-03-21T15:38:05.102Z,9.12
2019-03-21T15:40:35.839Z,9.12
2019-03-21T15:43:06.609Z,9.12
2019-03-21T15:45:37.715Z,9.10
2019-03-21T15:48:08.430Z,9.06
2019-03-21T15:50:38.737Z,9.04
2019-03-21T15:53:08.593Z,8.99
2019-03-21T15:55:38.862Z,8.90
2019-03-21T15:58:08.665Z,8.83
2019-03-21T16:00:52.540Z,8.78
2019-03-21T16:06:46.679Z,8.59
2019-03-21T16:09:18.072Z,8.58
2019-03-21T16:11:48.526Z,8.45
2019-03-21T16:14:20.705Z,8.39
2019-03-21T16:16:51.210Z,8.40
2019-03-21T16:19:22.213Z,8.46
2019-03-21T16:21:52.972Z,8.55
2019-03-21T16:24:23.717Z,8.55
2019-03-21T16:26:54.352Z,8.59
2019-03-21T16:29:25.234Z,8.57
2019-03-21T16:31:56.083Z,8.60
2019-03-21T16:34:26.732Z,8.65
2019-03-21T16:36:57.589Z,8.59
2019-03-21T16:39:28.454Z,8.61
2019-03-21T16:42:02.364Z,8.61
2019-03-21T16:44:33.040Z,8.57
2019-03-21T16:47:05.400Z,8.50
2019-03-21T16:49:35.842Z,8.45
2019-03-21T16:52:07.229Z,8.37
2019-03-21T16:54:37.778Z,8.29
2019-03-21T16:57:08.616Z,8.19
2019-03-21T16:59:40.953Z,8.18
2019-03-21T17:02:12.698Z,8.15
2019-03-21T17:04:43.307Z,8.12
2019-03-21T17:07:13.193Z,8.11
2019-03-21T17:09:44.331Z,8.06
2019-03-21T17:12:15.065Z,8.03
2019-03-21T17:14:47.931Z,8.07
2019-03-21T17:17:20.062Z,8.08
2019-03-21T17:19:50.462Z,8.05
2019-03-21T17:22:22.761Z,8.06
2019-03-21T17:24:53.137Z,8.11
2019-03-21T17:27:24.978Z,8.13
2019-03-21T17:29:55.313Z,8.12
2019-03-21T17:32:25.691Z,8.09
2019-03-21T17:34:56.255Z,8.07
2019-03-21T17:37:25.989Z,8.06
2019-03-21T17:39:56.088Z,8.05
2019-03-21T17:42:26.456Z,7.98
2019-03-21T17:44:56.725Z,7.98
2019-03-21T17:47:27.070Z,7.91
2019-03-21T17:49:56.954Z,7.83
2019-03-21T17:52:27.089Z,7.70
2019-03-21T17:54:57.414Z,7.54
2019-03-21T17:57:34.383Z,7.38
2019-03-21T17:59:59.121Z,7.33
2019-03-21T18:02:29.486Z,7.27
2019-03-21T18:04:59.816Z,7.14
2019-03-21T18:07:30.171Z,7.08
2019-03-21T18:10:01.799Z,6.97
2019-03-21T18:12:32.274Z,6.87
2019-03-21T18:15:03.230Z,6.76
2019-03-21T18:17:33.864Z,6.74
2019-03-21T18:20:06.216Z,6.57
2019-03-21T18:22:36.824Z,6.53
2019-03-21T18:25:07.764Z,6.42
2019-03-21T18:27:38.147Z,6.46
2019-03-21T18:30:08.672Z,6.46
2019-03-21T18:32:39.408Z,6.42
2019-03-21T18:35:10.081Z,6.40
2019-03-21T18:37:42.973Z,6.34
2019-03-21T18:40:13.735Z,6.29
2019-03-21T18:42:44.469Z,6.29
2019-03-21T18:45:16.640Z,6.18
2019-03-21T18:47:47.636Z,6.20
2019-03-21T18:50:18.804Z,6.17
2019-03-21T18:52:50.625Z,6.15
2019-03-21T18:55:21.513Z,6.16
2019-03-21T18:57:52.838Z,6.13
2019-03-21T19:00:23.571Z,6.11
2019-03-21T19:02:54.385Z,6.08
2019-03-21T19:05:25.264Z,6.06
2019-03-21T19:07:54.968Z,6.00
2019-03-21T19:10:25.201Z,5.93
2019-03-21T19:12:55.500Z,5.92
2019-03-21T19:15:25.915Z,5.79
2019-03-21T19:17:56.429Z,5.72
2019-03-21T19:20:27.110Z,5.67
2019-03-21T19:22:59.662Z,5.58
2019-03-21T19:25:30.164Z,5.49
2019-03-21T19:28:01.007Z,5.45
2019-03-21T19:30:31.776Z,5.38
2019-03-21T19:33:02.429Z,5.36
2019-03-21T19:35:33.287Z,5.31
2019-03-21T19:38:04.149Z,5.32
2019-03-21T19:40:35.200Z,5.20
2019-03-21T19:43:05.835Z,5.22
2019-03-21T19:45:36.383Z,5.16
2019-03-21T19:48:07.245Z,5.16
2019-03-21T19:50:38.010Z,5.12
2019-03-21T19:53:07.860Z,5.10
2019-03-21T19:55:38.496Z,5.09
2019-03-21T19:58:09.132Z,5.07
2019-03-21T20:00:40.005Z,5.06
2019-03-21T20:03:10.738Z,4.95
2019-03-21T20:05:40.709Z,4.93
2019-03-21T20:08:11.243Z,4.87
2019-03-21T20:10:42.114Z,4.82
2019-03-21T20:13:12.343Z,4.81
2019-03-21T20:15:43.096Z,4.79
2019-03-21T20:18:13.736Z,4.75
2019-03-21T20:20:44.603Z,4.64
2019-03-21T20:23:15.360Z,4.65
2019-03-21T20:25:45.993Z,4.64
2019-03-21T20:28:16.070Z,4.65
2019-03-21T20:30:46.598Z,4.60
2019-03-21T20:33:17.247Z,4.61
2019-03-21T20:35:47.882Z,4.61
2019-03-21T20:38:18.862Z,4.65
2019-03-21T20:40:49.615Z,4.72
2019-03-21T20:43:20.262Z,4.77
2019-03-21T20:45:51.103Z,4.81
2019-03-21T20:48:31.065Z,4.79
2019-03-21T20:51:01.626Z,4.73
2019-03-21T20:53:31.485Z,4.67
2019-03-21T20:56:02.009Z,4.51
2019-03-21T20:58:32.763Z,4.39
2019-03-21T21:01:04.114Z,4.38
2019-03-21T21:03:34.663Z,4.31
2019-03-21T21:06:05.640Z,4.29
2019-03-21T21:08:36.273Z,4.24
2019-03-21T21:11:07.480Z,4.08
2019-03-21T21:13:36.995Z,4.02
2019-03-21T21:16:07.429Z,4.06
2019-03-21T21:18:38.283Z,3.95
2019-03-21T21:21:09.021Z,3.84
2019-03-21T21:23:39.772Z,3.74
2019-03-21T21:26:10.443Z,3.74
2019-03-21T21:28:41.311Z,3.80
2019-03-21T21:31:12.679Z,3.81
2019-03-21T21:33:43.430Z,3.78
2019-03-21T21:36:21.977Z,3.74
2019-03-21T21:38:46.445Z,3.69
2019-03-21T21:41:17.112Z,3.71
2019-03-21T21:43:47.968Z,3.78
2019-03-21T21:46:18.827Z,3.84
2019-03-21T21:48:49.579Z,3.77
2019-03-21T21:51:20.231Z,3.63
2019-03-21T21:53:51.087Z,3.60
2019-03-21T21:56:21.949Z,3.47
2019-03-21T21:58:52.783Z,3.45
2019-03-21T22:01:23.655Z,3.40
2019-03-21T22:04:04.127Z,3.39
2019-03-21T22:06:26.495Z,3.45
2019-03-21T22:08:57.348Z,3.38
2019-03-21T22:11:29.024Z,3.24
2019-03-21T22:13:59.760Z,3.07
2019-03-21T22:16:30.534Z,2.95
2019-03-21T22:19:01.163Z,2.85
2019-03-21T22:21:31.835Z,2.78
2019-03-21T22:24:02.673Z,2.72
2019-03-21T22:26:33.545Z,2.75
2019-03-21T22:29:04.300Z,2.71
2019-03-21T22:31:34.933Z,2.70
2019-03-21T22:34:05.791Z,2.69
2019-03-21T22:36:48.621Z,2.73
2019-03-21T22:39:08.954Z,2.79
2019-03-21T22:41:39.809Z,2.74
2019-03-21T22:44:10.560Z,2.62
2019-03-21T22:46:41.195Z,2.59
2019-03-21T22:49:11.275Z,2.55
2019-03-21T22:51:41.680Z,2.61
2019-03-21T22:54:12.452Z,2.94
2019-03-21T22:56:43.103Z,3.17
2019-03-21T22:59:13.964Z,3.19
2019-03-21T23:01:44.595Z,3.17
2019-03-21T23:04:15.060Z,3.20
2019-03-21T23:06:45.693Z,3.05
2019-03-21T23:09:15.660Z,2.91
2019-03-21T23:11:47.116Z,2.81
2019-03-21T23:14:17.874Z,2.92
2019-03-21T23:16:48.505Z,2.90
2019-03-21T23:19:18.470Z,2.91
2019-03-21T23:21:49.500Z,2.94
2019-03-21T23:24:20.255Z,2.91
2019-03-21T23:26:53.065Z,2.92
2019-03-21T23:29:23.206Z,2.94
2019-03-21T23:31:53.161Z,2.97
2019-03-21T23:34:23.697Z,3.06
2019-03-21T23:36:54.433Z,3.12
2019-03-21T23:39:25.426Z,2.99
2019-03-21T23:41:56.261Z,2.96
2019-03-21T23:44:26.897Z,3.02
2019-03-21T23:46:56.977Z,3.05
2019-03-21T23:49:27.486Z,3.07
2019-03-21T23:51:58.150Z,3.10
2019-03-21T23:54:28.891Z,3.13
2019-03-21T23:57:04.457Z,3.10
2019-03-21T23:59:31.849Z,2.97
